Exning, United Kingdom
Current Conditions -  °F | °C
As of 3:58 AM on Monday 24 Nov 2014 (Local Time) from EGUN Reporting Station
Clear Clear  
Wind Chill: 29°   Ceiling: Unl
Heat Index: 34°   Visibility: 6mi
Dew Point: 33°   Wind: 6mph
Humidity: 96%   Direction: 240°WSW
Pressure: 30.21"   Gusts: NA
Location:  52.27°N, 0.37°E
Report Text: EGUN 240358Z AUTO 24005KT 9999 CLR 01/01 A3021 RMK AO2 SLP234 T00120006
Loading
Personal Weather Stations






























Interactive Weather Map New forecast layout! Learn more

10-Day Weather Forecast

Advertisements
Track Severe Weather on mobile